Terminal Aerodrome Forecast
Issued by NWS San Angelo, TX

Home | Current Version | Previous Version | Text Only | Print | Product List | Glossary On
Versions: 1 2 3 4 5 6 7 8 9 10 11 12 13
818
FTUS44 KSJT 231738
TAFABI
TAF
KABI 231738Z 2318/2418 21013KT P6SM SKC
     FM232000 24013KT P6SM SKC
     FM240100 18010KT P6SM FEW250
     FM241500 23016G24KT P6SM SCT250=

USA.gov is the U.S. government's official web portal to all federal, state and local government web resources and services.